createdAt,value
2016-05-12T00:00:35.229Z,49.41
2016-05-12T00:01:35.497Z,49.22
2016-05-12T00:02:35.125Z,49.41
2016-05-12T00:03:35.300Z,49.41
2016-05-12T00:04:35.333Z,49.41
2016-05-12T00:05:35.352Z,49.41
2016-05-12T00:06:35.369Z,49.51
2016-05-12T00:07:35.247Z,49.51
2016-05-12T00:08:35.422Z,49.02
2016-05-12T00:09:35.456Z,49.7
2016-05-12T00:10:35.475Z,49.02
2016-05-12T00:11:35.508Z,49.12
2016-05-12T00:12:35.527Z,49.7
2016-05-12T00:13:35.561Z,49.58
2016-05-12T00:14:35.579Z,49.32
2016-05-12T00:15:35.613Z,49.12
2016-05-12T00:16:35.631Z,48.93
2016-05-12T00:17:35.665Z,49.12
2016-05-12T00:18:35.684Z,48.93
2016-05-12T00:19:35.718Z,48.93
2016-05-12T00:20:35.736Z,48.9
2016-05-12T00:21:35.770Z,48.83
2016-05-12T00:22:35.631Z,48.9
2016-05-12T00:23:35.823Z,49
2016-05-12T00:24:35.841Z,49
2016-05-12T00:25:35.875Z,49.02
2016-05-12T00:26:35.892Z,49
2016-05-12T00:27:35.770Z,48.9
2016-05-12T00:28:35.944Z,48.9
2016-05-12T00:29:35.978Z,48.93
2016-05-12T00:30:35.997Z,49.32
2016-05-12T00:31:36.031Z,49.29
2016-05-12T00:32:36.050Z,49.41
2016-05-12T00:33:36.083Z,49.19
2016-05-12T00:34:36.102Z,49.22
2016-05-12T00:35:36.120Z,49.48
2016-05-12T00:36:36.138Z,49.19
2016-05-12T00:37:36.172Z,49.48
2016-05-12T00:38:36.191Z,49.38
2016-05-12T00:39:36.225Z,49.38
2016-05-12T00:40:36.258Z,49.89
2016-05-12T00:41:36.277Z,49.77
2016-05-12T00:42:36.295Z,49.77
2016-05-12T00:43:36.329Z,49.58
2016-05-12T00:44:36.346Z,49.96
2016-05-12T00:45:36.381Z,49.77
2016-05-12T00:46:36.838Z,49.68
2016-05-12T00:47:36.434Z,49.77
2016-05-12T00:48:36.452Z,49.48
2016-05-12T00:49:36.485Z,49.29
2016-05-12T00:50:36.504Z,49.38
2016-05-12T00:51:36.537Z,49.48
2016-05-12T00:52:36.556Z,49.38
2016-05-12T00:53:36.575Z,49.58
2016-05-12T00:54:36.609Z,49.77
2016-05-12T00:55:36.470Z,49.58
2016-05-12T00:56:36.504Z,49.58
2016-05-12T00:57:36.679Z,49.68
2016-05-12T00:58:36.714Z,49.19
2016-05-12T00:59:36.731Z,49.38
2016-05-12T01:00:36.780Z,49.29
2016-05-12T01:01:36.956Z,49.29
2016-05-12T01:02:36.818Z,49.38
2016-05-12T01:03:36.852Z,49.38
2016-05-12T01:04:36.854Z,49.58
2016-05-12T01:05:36.888Z,49.48
2016-05-12T01:06:36.922Z,49.87
2016-05-12T01:07:36.941Z,49.96
2016-05-12T01:08:36.975Z,49.77
2016-05-12T01:09:36.993Z,49.77
2016-05-12T01:10:37.027Z,49.87
2016-05-12T01:11:37.044Z,49.96
2016-05-12T01:12:37.063Z,49.96
2016-05-12T01:13:37.097Z,49.87
2016-05-12T01:14:37.116Z,50.06
2016-05-12T01:15:36.994Z,49.87
2016-05-12T01:16:37.543Z,50.06
2016-05-12T01:17:37.232Z,49.87
2016-05-12T01:18:37.220Z,49.96
2016-05-12T01:19:37.254Z,49.68
2016-05-12T01:20:37.272Z,49.77
2016-05-12T01:21:37.291Z,49.77
2016-05-12T01:22:37.324Z,49.87
2016-05-12T01:23:37.343Z,49.77
2016-05-12T01:24:37.393Z,49.87
2016-05-12T01:25:37.239Z,49.68
2016-05-12T01:26:37.445Z,49.87
2016-05-12T01:27:37.462Z,50.06
2016-05-12T01:28:37.481Z,50.25
2016-05-12T01:29:37.500Z,49.77
2016-05-12T01:30:37.534Z,50.35
2016-05-12T01:31:37.583Z,50.15
2016-05-12T01:32:37.586Z,50.06
2016-05-12T01:33:37.603Z,50.25
2016-05-12T01:34:37.638Z,49.96
2016-05-12T01:35:37.672Z,50.06
2016-05-12T01:36:37.691Z,50.15
2016-05-12T01:37:37.553Z,50.25
2016-05-12T01:38:37.727Z,49.96
2016-05-12T01:39:37.605Z,50.06
2016-05-12T01:40:37.779Z,50.06
2016-05-12T01:41:37.814Z,50.15
2016-05-12T01:42:37.832Z,50.25
2016-05-12T01:43:37.849Z,50.06
2016-05-12T01:44:37.883Z,50.06
2016-05-12T01:45:37.918Z,50.15
2016-05-12T01:46:37.780Z,49.87
2016-05-12T01:47:37.970Z,49.87
2016-05-12T01:48:37.988Z,49.96
2016-05-12T01:49:38.022Z,50.15
2016-05-12T01:50:38.040Z,49.96
2016-05-12T01:51:38.059Z,49.96
2016-05-12T01:52:38.093Z,50.15
2016-05-12T01:53:38.126Z,50.06
2016-05-12T01:54:38.145Z,50.06
2016-05-12T01:55:38.163Z,50.06
2016-05-12T01:56:38.198Z,50.15
2016-05-12T01:57:38.215Z,49.94
2016-05-12T01:58:38.250Z,50.06
2016-05-12T01:59:38.112Z,50.15
2016-05-12T02:00:38.286Z,50.35
2016-05-12T02:01:38.553Z,50.45
2016-05-12T02:02:38.338Z,50.63
2016-05-12T02:03:38.373Z,50.73
2016-05-12T02:04:38.391Z,50.45
2016-05-12T02:05:38.424Z,50.63
2016-05-12T02:06:38.442Z,50.63
2016-05-12T02:07:38.461Z,50.35
2016-05-12T02:08:38.495Z,50.42
2016-05-12T02:09:38.513Z,50.25
2016-05-12T02:10:38.391Z,50.61
2016-05-12T02:11:38.566Z,50.51
2016-05-12T02:12:38.443Z,50.61
2016-05-12T02:13:38.618Z,50.13
2016-05-12T02:14:38.652Z,50.32
2016-05-12T02:15:38.670Z,50.13
2016-05-12T02:16:38.705Z,50.42
2016-05-12T02:17:38.722Z,50.23
2016-05-12T02:18:38.740Z,50.42
2016-05-12T02:19:38.775Z,50.51
2016-05-12T02:20:38.809Z,50.42
2016-05-12T02:21:38.827Z,50.13
2016-05-12T02:22:38.845Z,50.42
2016-05-12T02:23:38.863Z,50.23
2016-05-12T02:24:38.898Z,50.42
2016-05-12T02:25:38.932Z,50.51
2016-05-12T02:26:38.950Z,50.23
2016-05-12T02:27:38.968Z,50.23
2016-05-12T02:28:38.845Z,50.04
2016-05-12T02:29:39.020Z,50.13
2016-05-12T02:30:39.054Z,50.42
2016-05-12T02:31:38.917Z,50.42
2016-05-12T02:32:39.107Z,50.13
2016-05-12T02:33:39.125Z,50.04
2016-05-12T02:34:39.158Z,50.81
2016-05-12T02:35:39.178Z,50.61
2016-05-12T02:36:39.227Z,50.23
2016-05-12T02:37:39.229Z,50.04
2016-05-12T02:38:39.264Z,50.99
2016-05-12T02:39:39.281Z,50.04
2016-05-12T02:40:39.316Z,50.04
2016-05-12T02:41:39.334Z,50.32
2016-05-12T02:42:39.368Z,50.99
2016-05-12T02:43:39.386Z,50.42
2016-05-12T02:44:39.404Z,51.09
2016-05-12T02:45:39.266Z,50.32
2016-05-12T02:46:39.457Z,50.23
2016-05-12T02:47:39.319Z,50.81
2016-05-12T02:48:39.509Z,50.81
2016-05-12T02:49:39.527Z,50.51
2016-05-12T02:50:39.405Z,50.32
2016-05-12T02:51:39.580Z,50.32
2016-05-12T02:52:39.613Z,50.81
2016-05-12T02:53:39.632Z,51.09
2016-05-12T02:54:39.650Z,50.32
2016-05-12T02:55:39.684Z,50.81
2016-05-12T02:56:39.701Z,50.81
2016-05-12T02:57:39.579Z,50.9
2016-05-12T02:58:39.755Z,50.9
2016-05-12T02:59:39.789Z,50.9
2016-05-12T03:00:39.651Z,50.51
2016-05-12T03:01:40.294Z,50.9
2016-05-12T03:02:39.859Z,50.9
2016-05-12T03:03:39.877Z,50.81
2016-05-12T03:04:39.756Z,50.81
2016-05-12T03:05:39.930Z,50.81
2016-05-12T03:06:39.964Z,50.9
2016-05-12T03:07:39.981Z,50.9
2016-05-12T03:08:40.016Z,50.99
2016-05-12T03:09:40.034Z,50.99
2016-05-12T03:10:40.069Z,50.99
2016-05-12T03:11:40.086Z,50.9
2016-05-12T03:12:40.105Z,50.9
2016-05-12T03:13:40.139Z,50.9
2016-05-12T03:14:40.157Z,50.9
2016-05-12T03:15:40.191Z,50.99
2016-05-12T03:16:40.209Z,50.9
2016-05-12T03:17:40.244Z,50.99
2016-05-12T03:18:40.261Z,50.61
2016-05-12T03:19:40.280Z,50.61
2016-05-12T03:20:40.314Z,50.99
2016-05-12T03:21:40.348Z,50.81
2016-05-12T03:22:40.365Z,50.61
2016-05-12T03:23:40.384Z,50.71
2016-05-12T03:24:40.418Z,50.71
2016-05-12T03:25:40.437Z,50.51
2016-05-12T03:26:40.454Z,50.61
2016-05-12T03:27:40.489Z,50.81
2016-05-12T03:28:40.367Z,50.81
2016-05-12T03:29:40.540Z,51.19
2016-05-12T03:30:40.559Z,50.9
2016-05-12T03:31:40.609Z,50.99
2016-05-12T03:32:40.612Z,50.99
2016-05-12T03:33:40.630Z,51.19
2016-05-12T03:34:40.664Z,51.29
2016-05-12T03:35:40.681Z,51.09
2016-05-12T03:36:40.716Z,51.38
2016-05-12T03:37:40.734Z,51.38
2016-05-12T03:38:40.769Z,51.29
2016-05-12T03:39:40.787Z,51.19
2016-05-12T03:40:40.820Z,51.19
2016-05-12T03:41:40.838Z,51.29
2016-05-12T03:42:40.872Z,50.99
2016-05-12T03:43:40.891Z,50.97
2016-05-12T03:44:40.910Z,50.99
2016-05-12T03:45:40.958Z,50.99
2016-05-12T03:46:40.821Z,51.09
2016-05-12T03:47:40.996Z,51.09
2016-05-12T03:48:40.858Z,51.19
2016-05-12T03:49:41.048Z,51.09
2016-05-12T03:50:41.066Z,51.29
2016-05-12T03:51:41.085Z,51.19
2016-05-12T03:52:41.119Z,50.99
2016-05-12T03:53:41.137Z,51.19
2016-05-12T03:54:41.171Z,51.38
2016-05-12T03:55:41.189Z,50.97
2016-05-12T03:56:41.067Z,50.99
2016-05-12T03:57:41.241Z,50.87
2016-05-12T03:58:41.260Z,50.99
2016-05-12T03:59:41.294Z,50.99
2016-05-12T04:00:41.156Z,50.97
2016-05-12T04:01:41.377Z,51.07
2016-05-12T04:02:41.364Z,50.99
2016-05-12T04:03:41.398Z,50.99
2016-05-12T04:04:41.417Z,50.99
2016-05-12T04:05:41.467Z,50.99
2016-05-12T04:06:41.469Z,50.9
2016-05-12T04:07:41.487Z,50.9
2016-05-12T04:08:41.520Z,50.87
2016-05-12T04:09:41.539Z,50.9
2016-05-12T04:10:41.573Z,50.87
2016-05-12T04:11:41.592Z,50.97
2016-05-12T04:12:41.610Z,50.87
2016-05-12T04:13:41.644Z,51.17
2016-05-12T04:14:41.677Z,50.97
2016-05-12T04:15:41.696Z,50.9
2016-05-12T04:16:41.808Z,50.87
2016-05-12T04:17:41.748Z,50.97
2016-05-12T04:18:41.783Z,50.99
2016-05-12T04:19:41.800Z,51.07
2016-05-12T04:20:41.819Z,51.17
2016-05-12T04:21:41.852Z,51.19
2016-05-12T04:22:41.871Z,50.99
2016-05-12T04:23:41.889Z,51.09
2016-05-12T04:24:41.923Z,51.38
2016-05-12T04:25:41.941Z,50.99
2016-05-12T04:26:41.976Z,50.99
2016-05-12T04:27:42.009Z,50.99
2016-05-12T04:28:42.012Z,50.99
2016-05-12T04:29:42.046Z,51.19
2016-05-12T04:30:42.065Z,51.19
2016-05-12T04:31:42.286Z,50.99
2016-05-12T04:32:42.117Z,51.19
2016-05-12T04:33:42.151Z,51.09
2016-05-12T04:34:42.012Z,51.19
2016-05-12T04:35:42.203Z,51.29
2016-05-12T04:36:42.064Z,50.99
2016-05-12T04:37:42.240Z,50.71
2016-05-12T04:38:42.274Z,50.81
2016-05-12T04:39:42.292Z,50.61
2016-05-12T04:40:42.341Z,50.81
2016-05-12T04:41:42.344Z,50.61
2016-05-12T04:42:42.377Z,50.9
2016-05-12T04:43:42.256Z,51.09
2016-05-12T04:44:42.275Z,50.9
2016-05-12T04:45:42.449Z,50.9
2016-05-12T04:46:42.467Z,50.9
2016-05-12T04:47:42.500Z,50.9
2016-05-12T04:48:42.519Z,50.99
2016-05-12T04:49:42.537Z,50.32
2016-05-12T04:50:42.572Z,50.42
2016-05-12T04:51:42.605Z,50.32
2016-05-12T04:52:42.624Z,50.42
2016-05-12T04:53:42.641Z,50.99
2016-05-12T04:54:42.676Z,50.42
2016-05-12T04:55:42.710Z,50.99
2016-05-12T04:56:42.729Z,50.42
2016-05-12T04:57:42.746Z,50.13
2016-05-12T04:58:42.780Z,50.04
2016-05-12T04:59:42.815Z,50.13
2016-05-12T05:00:42.832Z,50.51
2016-05-12T05:01:42.867Z,50.32
2016-05-12T05:02:42.884Z,50.13
2016-05-12T05:03:42.904Z,50.61
2016-05-12T05:04:42.921Z,50.32
2016-05-12T05:05:42.956Z,50.61
2016-05-12T05:06:42.974Z,50.71
2016-05-12T05:07:43.008Z,50.04
2016-05-12T05:08:43.026Z,50.04
2016-05-12T05:09:43.059Z,50.23
2016-05-12T05:10:43.094Z,50.15
2016-05-12T05:11:43.315Z,50.04
2016-05-12T05:12:43.131Z,50.04
2016-05-12T05:13:43.149Z,49.77
2016-05-12T05:14:43.183Z,49.68
2016-05-12T05:15:43.216Z,49.68
2016-05-12T05:16:43.078Z,50.06
2016-05-12T05:17:43.253Z,49.87
2016-05-12T05:18:43.288Z,49.87
2016-05-12T05:19:43.305Z,49.38
2016-05-12T05:20:43.324Z,49.29
2016-05-12T05:21:43.358Z,49.19
2016-05-12T05:22:43.376Z,49.48
2016-05-12T05:23:43.411Z,49.38
2016-05-12T05:24:43.429Z,49.77
2016-05-12T05:25:43.463Z,49.58
2016-05-12T05:26:43.480Z,49.38
2016-05-12T05:27:43.499Z,49.1
2016-05-12T05:28:43.532Z,49.38
2016-05-12T05:29:43.551Z,49.58
2016-05-12T05:30:43.585Z,49.29
2016-05-12T05:31:43.604Z,48.74
2016-05-12T05:32:43.637Z,49.1
2016-05-12T05:33:43.656Z,48.54
2016-05-12T05:34:43.690Z,48.35
2016-05-12T05:35:43.723Z,48.74
2016-05-12T05:36:43.742Z,48.25
2016-05-12T05:37:43.759Z,48.35
2016-05-12T05:38:43.795Z,47.58
2016-05-12T05:39:43.813Z,47.97
2016-05-12T05:40:43.847Z,47.87
2016-05-12T05:41:43.709Z,47.58
2016-05-12T05:42:43.898Z,47.39
2016-05-12T05:43:43.775Z,47.31
2016-05-12T05:44:43.951Z,47.6
2016-05-12T05:45:43.985Z,47.03
2016-05-12T05:46:44.175Z,46.93
2016-05-12T05:47:43.866Z,46.64
2016-05-12T05:48:44.055Z,46.55
2016-05-12T05:49:44.089Z,46.25
2016-05-12T05:50:43.952Z,46.25
2016-05-12T05:51:44.126Z,45.87
2016-05-12T05:52:44.004Z,45.89
2016-05-12T05:53:44.193Z,45.31
2016-05-12T05:54:44.055Z,45.89
2016-05-12T05:55:44.231Z,45.51
2016-05-12T05:56:44.265Z,45.31
2016-05-12T05:57:44.282Z,45.21
2016-05-12T05:58:44.316Z,45.21
2016-05-12T05:59:44.335Z,44.46
2016-05-12T06:00:44.369Z,44.76
2016-05-12T06:01:44.246Z,44.27
2016-05-12T06:02:44.421Z,44.27
2016-05-12T06:03:44.455Z,43.79
2016-05-12T06:04:44.490Z,43.89
2016-05-12T06:05:44.507Z,43.81
2016-05-12T06:06:44.542Z,43.72
2016-05-12T06:07:44.559Z,43.24
2016-05-12T06:08:44.578Z,43.14
2016-05-12T06:09:44.611Z,43.04
2016-05-12T06:10:44.646Z,42.66
2016-05-12T06:11:44.680Z,42.39
2016-05-12T06:12:44.542Z,42.36
2016-05-12T06:13:44.716Z,42.39
2016-05-12T06:14:44.750Z,42.29
2016-05-12T06:15:44.784Z,41.91
2016-05-12T06:16:44.819Z,42.1
2016-05-12T06:17:44.836Z,41.52
2016-05-12T06:18:44.855Z,41.71
2016-05-12T06:19:44.889Z,41.54
2016-05-12T06:20:44.922Z,41.44
2016-05-12T06:21:44.941Z,41.44
2016-05-12T06:22:44.975Z,40.77
2016-05-12T06:23:44.993Z,40.77
2016-05-12T06:24:45.027Z,40.67
2016-05-12T06:25:45.061Z,40.01
2016-05-12T06:26:45.080Z,40.2
2016-05-12T06:27:45.113Z,40.11
2016-05-12T06:28:45.132Z,39.82
2016-05-12T06:29:45.166Z,39.92
2016-05-12T06:30:45.199Z,39.34
2016-05-12T06:31:45.452Z,39.34
2016-05-12T06:32:45.251Z,39.14
2016-05-12T06:33:45.286Z,38.87
2016-05-12T06:34:45.304Z,38.87
2016-05-12T06:35:45.337Z,39.45
2016-05-12T06:36:45.373Z,38.97
2016-05-12T06:37:45.390Z,38.87
2016-05-12T06:38:45.409Z,38.58
2016-05-12T06:39:45.443Z,38.5
2016-05-12T06:40:45.477Z,38.12
2016-05-12T06:41:45.495Z,37.82
2016-05-12T06:42:45.529Z,38.12
2016-05-12T06:43:45.562Z,37.73
2016-05-12T06:44:45.425Z,37.63
2016-05-12T06:45:45.615Z,37.34
2016-05-12T06:46:46.055Z,37.63
2016-05-12T06:47:45.667Z,37.26
2016-05-12T06:48:45.700Z,36.78
2016-05-12T06:49:45.762Z,36.68
2016-05-12T06:50:45.699Z,36.68
2016-05-12T06:51:45.916Z,36.68
2016-05-12T06:52:45.852Z,36.49
2016-05-12T06:53:46.054Z,36.49
2016-05-12T06:54:46.104Z,36.3
2016-05-12T06:55:46.154Z,36.49
2016-05-12T06:56:46.187Z,36.4
2016-05-12T06:57:46.236Z,36.58
2016-05-12T06:58:46.285Z,36.49
2016-05-12T06:59:46.152Z,36.22
2016-05-12T07:00:46.349Z,35.93
2016-05-12T07:01:46.387Z,36.41
2016-05-12T07:02:46.427Z,36.02
2016-05-12T07:03:46.466Z,36.02
2016-05-12T07:04:46.471Z,36.33
2016-05-12T07:05:46.507Z,35.93
2016-05-12T07:06:46.543Z,36.14
2016-05-12T07:07:46.563Z,35.75
2016-05-12T07:08:46.599Z,36.33
2016-05-12T07:09:46.634Z,36.24
2016-05-12T07:10:46.669Z,35.56
2016-05-12T07:11:46.687Z,35.75
2016-05-12T07:12:46.721Z,35.48
2016-05-12T07:13:46.757Z,35.28
2016-05-12T07:14:46.775Z,35.67
2016-05-12T07:15:46.810Z,35.19
2016-05-12T07:16:46.688Z,34.99
2016-05-12T07:17:46.878Z,34.22
2016-05-12T07:18:46.897Z,34.77
2016-05-12T07:19:46.931Z,34.45
2016-05-12T07:20:46.964Z,34.45
2016-05-12T07:21:46.998Z,33.69
2016-05-12T07:22:47.017Z,33.02
2016-05-12T07:23:47.051Z,33.22
2016-05-12T07:24:47.070Z,33.02
2016-05-12T07:25:47.103Z,32.84
2016-05-12T07:26:47.136Z,32.46
2016-05-12T07:27:47.000Z,32.46
2016-05-12T07:28:47.189Z,32.47
2016-05-12T07:29:47.224Z,32.07
2016-05-12T07:30:47.242Z,32.47
2016-05-12T07:31:47.307Z,32.28
2016-05-12T07:32:47.153Z,31.97
2016-05-12T07:33:47.344Z,32.47
2016-05-12T07:34:47.362Z,32.37
2016-05-12T07:35:47.240Z,32.18
2016-05-12T07:36:47.430Z,32.09
2016-05-12T07:37:47.463Z,32.18
2016-05-12T07:38:47.482Z,31.99
2016-05-12T07:39:47.516Z,31.99
2016-05-12T07:40:47.550Z,32.09
2016-05-12T07:41:47.568Z,32.09
2016-05-12T07:42:47.618Z,31.5
2016-05-12T07:43:47.636Z,31.32
2016-05-12T07:44:47.671Z,31.62
2016-05-12T07:45:47.704Z,31.23
2016-05-12T07:46:47.723Z,31.13
2016-05-12T07:47:47.756Z,31.13
2016-05-12T07:48:47.634Z,30.94
2016-05-12T07:49:47.824Z,31.04
2016-05-12T07:50:47.842Z,31.13
2016-05-12T07:51:47.877Z,30.84
2016-05-12T07:52:47.911Z,30.94
2016-05-12T07:53:47.929Z,30.84
2016-05-12T07:54:47.962Z,30.55
2016-05-12T07:55:47.997Z,30.84
2016-05-12T07:56:48.031Z,30.65
2016-05-12T07:57:48.049Z,31.71
2016-05-12T07:58:48.083Z,32.1
2016-05-12T07:59:48.116Z,32.2
2016-05-12T08:00:48.150Z,32.57
2016-05-12T08:01:48.169Z,32.67
2016-05-12T08:02:48.203Z,32.67
2016-05-12T08:03:48.080Z,32.87
2016-05-12T08:04:48.099Z,32.68
2016-05-12T08:05:48.289Z,32.12
2016-05-12T08:06:48.324Z,32.12
2016-05-12T08:07:48.201Z,31.92
2016-05-12T08:08:48.374Z,32.41
2016-05-12T08:09:48.410Z,32.42
2016-05-12T08:10:48.428Z,32.32
2016-05-12T08:11:48.462Z,33.59
2016-05-12T08:12:48.496Z,33.2
2016-05-12T08:13:48.529Z,34.08
2016-05-12T08:14:48.548Z,33.88
2016-05-12T08:15:48.582Z,33.69
2016-05-12T08:16:48.928Z,34.27
2016-05-12T08:17:48.650Z,34.56
2016-05-12T08:18:48.668Z,34.36
2016-05-12T08:19:48.701Z,34.66
2016-05-12T08:20:48.737Z,34.75
2016-05-12T08:21:48.754Z,34.56
2016-05-12T08:22:48.787Z,35.43
2016-05-12T08:23:48.822Z,35.43
2016-05-12T08:24:48.856Z,35.53
2016-05-12T08:25:48.874Z,36
2016-05-12T08:26:48.908Z,36.77
2016-05-12T08:27:48.926Z,36.48
2016-05-12T08:28:48.960Z,37.16
2016-05-12T08:29:48.994Z,37.35
2016-05-12T08:31:02.481Z,37.43
2016-05-12T08:31:49.016Z,37.24
2016-05-12T08:32:49.081Z,38.12
2016-05-12T08:33:49.115Z,38.13
2016-05-12T08:34:49.149Z,38.23
2016-05-12T08:35:49.183Z,38.62
2016-05-12T08:36:49.200Z,38.5
2016-05-12T08:37:49.078Z,38.89
2016-05-12T08:38:49.160Z,39.08
2016-05-12T08:39:49.287Z,38.71
2016-05-12T08:40:49.321Z,39.01
2016-05-12T08:41:49.354Z,39.18
2016-05-12T08:42:49.232Z,39.08
2016-05-12T08:43:49.407Z,39.76
2016-05-12T08:44:49.441Z,40.25
2016-05-12T08:45:49.474Z,40.25
2016-05-12T08:46:49.509Z,40.25
2016-05-12T08:47:49.543Z,40.34
2016-05-12T08:48:49.561Z,39.86
2016-05-12T08:49:49.610Z,41.02
2016-05-12T08:50:49.629Z,40.73
2016-05-12T08:51:49.647Z,40.92
2016-05-12T08:52:49.681Z,41.12
2016-05-12T08:53:49.700Z,41.61
2016-05-12T08:54:49.577Z,41.89
2016-05-12T08:55:49.612Z,41.51
2016-05-12T08:56:49.629Z,40.81
2016-05-12T08:57:49.819Z,39.55
2016-05-12T08:58:49.854Z,36.93
2016-05-12T08:59:49.887Z,36.14
2016-05-12T09:00:49.749Z,36.33
2016-05-12T09:01:50.097Z,35.64
2016-05-12T09:02:49.974Z,35.94
2016-05-12T09:03:50.008Z,36.12
2016-05-12T09:04:50.025Z,36.02
2016-05-12T09:05:50.060Z,35.83
2016-05-12T09:06:50.094Z,36.12
2016-05-12T09:07:50.112Z,35.46
2016-05-12T09:08:51.255Z,35.66
2016-05-12T09:09:50.180Z,35.94
2016-05-12T09:10:50.199Z,36.33
2016-05-12T09:11:50.232Z,36.43
2016-05-12T09:12:50.251Z,35.94
2016-05-12T09:13:50.284Z,36.14
2016-05-12T09:14:50.335Z,35.83
2016-05-12T09:15:50.337Z,36.14
2016-05-12T09:16:50.605Z,36.52
2016-05-12T09:17:50.249Z,36.24
2016-05-12T09:18:50.423Z,35.93
2016-05-12T09:19:50.457Z,36.51
2016-05-12T09:20:50.491Z,36.02
2016-05-12T09:21:50.525Z,36.22
2016-05-12T09:22:50.543Z,36.9
2016-05-12T09:23:50.576Z,36.9
2016-05-12T09:24:53.611Z,36.8
2016-05-12T09:25:50.629Z,36.41
2016-05-12T09:26:50.663Z,36.9
2016-05-12T09:27:50.541Z,37.38
2016-05-12T09:28:50.731Z,37.57
2016-05-12T09:29:50.750Z,37.87
2016-05-12T09:30:50.783Z,37.19
2016-05-12T09:31:50.661Z,36.9
2016-05-12T09:32:50.836Z,37.57
2016-05-12T09:33:50.869Z,37.38
2016-05-12T09:34:50.903Z,37.38
2016-05-12T09:35:50.938Z,38.06
2016-05-12T09:36:50.956Z,37.75
2016-05-12T09:37:50.989Z,37.67
2016-05-12T09:38:50.852Z,37.57
2016-05-12T09:39:51.042Z,37.75
2016-05-12T09:40:51.076Z,38.15
2016-05-12T09:41:51.094Z,36.51
2016-05-12T09:42:51.127Z,36.98
2016-05-12T09:43:51.162Z,36.88
2016-05-12T09:44:51.180Z,37.75
2016-05-12T09:45:51.214Z,37.55
2016-05-12T09:46:51.093Z,37.46
2016-05-12T09:47:51.266Z,37.36
2016-05-12T09:48:51.301Z,37.17
2016-05-12T09:49:51.335Z,37.55
2016-05-12T09:50:51.353Z,37.44
2016-05-12T09:51:51.387Z,37.46
2016-05-12T09:52:51.420Z,37.36
2016-05-12T09:53:51.454Z,37.36
2016-05-12T09:54:51.489Z,37.65
2016-05-12T09:55:51.492Z,37.46
2016-05-12T09:56:51.540Z,37.73
2016-05-12T09:57:51.559Z,37.44
2016-05-12T09:58:51.592Z,37.73
2016-05-12T09:59:51.470Z,37.34
2016-05-12T10:00:51.489Z,37.44
2016-05-12T10:01:52.303Z,37.54
2016-05-12T10:02:51.714Z,37.63
2016-05-12T10:03:51.732Z,37.44
2016-05-12T10:04:51.781Z,37.82
2016-05-12T10:05:51.784Z,37.73
2016-05-12T10:06:51.661Z,37.82
2016-05-12T10:07:51.867Z,37.54
2016-05-12T10:08:51.886Z,38.12
2016-05-12T10:09:51.904Z,38.02
2016-05-12T10:10:51.938Z,37.63
2016-05-12T10:11:51.971Z,38.02
2016-05-12T10:12:51.990Z,37.73
2016-05-12T10:13:52.024Z,37.82
2016-05-12T10:14:52.042Z,37.82
2016-05-12T10:15:52.076Z,38.02
2016-05-12T10:16:51.969Z,37.73
2016-05-12T10:17:52.129Z,37.9
2016-05-12T10:18:52.163Z,37.92
2016-05-12T10:19:52.196Z,37.82
2016-05-12T10:20:52.215Z,38.12
2016-05-12T10:21:52.295Z,38.1
2016-05-12T10:22:52.127Z,38.2
2016-05-12T10:23:52.301Z,38.2
2016-05-12T10:24:52.335Z,38.02
2016-05-12T10:25:52.212Z,37.92
2016-05-12T10:26:52.387Z,38.02
2016-05-12T10:27:52.421Z,37.82
2016-05-12T10:28:52.455Z,38.2
2016-05-12T10:29:52.489Z,38.02
2016-05-12T10:30:52.506Z,38.02
2016-05-12T10:31:52.541Z,38
2016-05-12T10:32:52.576Z,38.7
2016-05-12T10:33:52.593Z,39.37
2016-05-12T10:34:52.627Z,39.37
2016-05-12T10:35:52.505Z,39.18
2016-05-12T10:36:52.539Z,38.5
2016-05-12T10:37:52.714Z,39.09
2016-05-12T10:38:52.763Z,39.18
2016-05-12T10:39:52.766Z,38.79
2016-05-12T10:40:52.846Z,38.89
2016-05-12T10:41:52.833Z,39.09
2016-05-12T10:42:52.852Z,38.89
2016-05-12T10:43:52.886Z,39.09
2016-05-12T10:44:52.763Z,39.57
2016-05-12T10:45:52.938Z,39.37
2016-05-12T10:46:52.988Z,39.09
2016-05-12T10:47:53.007Z,38.89
2016-05-12T10:48:52.868Z,39.18
2016-05-12T10:49:53.057Z,39.09
2016-05-12T10:50:53.093Z,39.18
2016-05-12T10:51:53.111Z,38.79
2016-05-12T10:52:53.145Z,39.18
2016-05-12T10:53:53.179Z,39.57
2016-05-12T10:54:53.196Z,39.28
2016-05-12T10:55:53.231Z,39.47
2016-05-12T10:56:53.265Z,38.89
2016-05-12T10:57:53.159Z,39.09
2016-05-12T10:58:53.161Z,37.73
2016-05-12T10:59:53.350Z,38.31
2016-05-12T11:00:53.369Z,38.5
2016-05-12T11:01:53.951Z,38.99
2016-05-12T11:02:53.436Z,38.89
2016-05-12T11:03:53.455Z,38.89
2016-05-12T11:04:53.489Z,39.09
2016-05-12T11:05:53.523Z,39.09
2016-05-12T11:06:53.542Z,39.28
2016-05-12T11:07:53.576Z,38.89
2016-05-12T11:08:53.608Z,38.89
2016-05-12T11:09:53.644Z,38.99
2016-05-12T11:10:53.678Z,38.89
2016-05-12T11:11:53.696Z,38.99
2016-05-12T11:12:53.730Z,39.09
2016-05-12T11:13:53.763Z,38.99
2016-05-12T11:14:53.782Z,38.99
2016-05-12T11:15:53.816Z,39.01
2016-05-12T11:16:53.849Z,38.79
2016-05-12T11:17:53.883Z,39.09
2016-05-12T11:18:53.746Z,38.89
2016-05-12T11:19:53.763Z,38.7
2016-05-12T11:20:53.954Z,38.43
2016-05-12T11:21:53.988Z,38.43
2016-05-12T11:22:54.006Z,38.62
2016-05-12T11:23:53.884Z,38.23
2016-05-12T11:24:54.074Z,38.62
2016-05-12T11:25:54.093Z,38.62
2016-05-12T11:26:54.126Z,38.23
2016-05-12T11:27:54.160Z,38.33
2016-05-12T11:28:54.038Z,38.43
2016-05-12T11:29:54.213Z,38.04
2016-05-12T11:30:54.247Z,38.33
2016-05-12T11:31:54.280Z,38.23
2016-05-12T11:32:54.299Z,38.04
2016-05-12T11:33:54.176Z,38.23
2016-05-12T11:34:54.210Z,38.23
2016-05-12T11:35:54.386Z,38.04
2016-05-12T11:36:54.419Z,38.13
2016-05-12T11:37:54.453Z,37.94
2016-05-12T11:38:54.471Z,38.04
2016-05-12T11:39:54.506Z,38.13
2016-05-12T11:40:54.399Z,37.55
2016-05-12T11:41:54.557Z,37.85
2016-05-12T11:42:54.592Z,38.13
2016-05-12T11:43:54.625Z,37.94
2016-05-12T11:44:54.644Z,38.13
2016-05-12T11:45:54.678Z,38.04
2016-05-12T11:46:54.555Z,38.13
2016-05-12T11:47:54.761Z,37.94
2016-05-12T11:48:54.779Z,37.85
2016-05-12T11:49:54.799Z,37.85
2016-05-12T11:50:54.832Z,37.85
2016-05-12T11:51:54.849Z,37.85
2016-05-12T11:52:54.884Z,37.65
2016-05-12T11:53:54.902Z,37.85
2016-05-12T11:54:54.952Z,37.75
2016-05-12T11:55:54.985Z,37.94
2016-05-12T11:56:55.004Z,37.85
2016-05-12T11:57:55.038Z,37.65
2016-05-12T11:58:55.056Z,37.55
2016-05-12T11:59:55.090Z,37.75
2016-05-12T12:00:54.968Z,37.38
2016-05-12T12:01:55.143Z,37.38
2016-05-12T12:02:55.177Z,37.36
2016-05-12T12:03:55.211Z,37.26
2016-05-12T12:04:55.259Z,37.36
2016-05-12T12:05:55.262Z,37.26
2016-05-12T12:06:55.297Z,37.26
2016-05-12T12:07:55.330Z,37.38
2016-05-12T12:08:55.350Z,37.36
2016-05-12T12:09:55.383Z,37.38
2016-05-12T12:10:55.400Z,37.48
2016-05-12T12:11:55.435Z,37.55
2016-05-12T12:12:55.469Z,37.55
2016-05-12T12:13:55.502Z,37.38
2016-05-12T12:14:55.521Z,37.48
2016-05-12T12:15:55.555Z,37.36
2016-05-12T12:16:55.855Z,37.67
2016-05-12T12:17:55.608Z,37.57
2016-05-12T12:18:55.501Z,37.67
2016-05-12T12:19:55.675Z,37.75
2016-05-12T12:20:55.693Z,37.65
2016-05-12T12:21:55.728Z,37.67
2016-05-12T12:22:55.605Z,37.77
2016-05-12T12:23:55.827Z,37.85
2016-05-12T12:24:55.657Z,37.67
2016-05-12T12:25:55.848Z,37.77
2016-05-12T12:26:55.898Z,37.38
2016-05-12T12:27:55.900Z,37.19
2016-05-12T12:28:55.934Z,37.19
2016-05-12T12:29:55.967Z,37.67
2016-05-12T12:30:55.986Z,37.19
2016-05-12T12:31:55.865Z,37.28
2016-05-12T12:32:56.054Z,37.19
2016-05-12T12:33:56.119Z,37.28
2016-05-12T12:34:56.106Z,37.38
2016-05-12T12:35:56.125Z,37.38
2016-05-12T12:36:56.159Z,37.67
2016-05-12T12:37:56.037Z,37.77
2016-05-12T12:38:56.226Z,37.46
2016-05-12T12:39:56.261Z,37.77
2016-05-12T12:40:56.279Z,37.77
2016-05-12T12:41:56.313Z,38.15
2016-05-12T12:42:56.331Z,38.93
2016-05-12T12:43:56.364Z,39.32
2016-05-12T12:44:56.242Z,38.93
2016-05-12T12:45:56.433Z,39.22
2016-05-12T12:46:56.529Z,39.41
2016-05-12T12:47:56.500Z,39.61
2016-05-12T12:48:56.518Z,39.03
2016-05-12T12:49:56.553Z,38.93
2016-05-12T12:50:56.571Z,38.83
2016-05-12T12:51:56.605Z,38.83
2016-05-12T12:52:56.639Z,39.41
2016-05-12T12:53:56.657Z,40.19
2016-05-12T12:54:56.535Z,39.7